Terminal Aerodrome Forecast
Issued by NWS Mt. Holly, NJ

Home | Current Version | Previous Version | Text Only | Print | Product List | Glossary On
Versions: 1 2 3 4 5 6 7 8 9 10 11 12
000
FTUS41 KPHI 290500
TAFTTN
TAF
KTTN 290530Z 2906/3006 35007KT P6SM BKN040 OVC100
     FM291000 01007KT P6SM BKN150
     FM291600 33005KT P6SM SCT050 BKN250
     FM300100 36005KT P6SM BKN100=

USA.gov is the U.S. government's official web portal to all federal, state and local government web resources and services.